createdAt,value
2018-06-18T00:00:21.310Z,57.30
2018-06-18T00:02:49.359Z,56.16
2018-06-18T00:05:17.460Z,57.40
2018-06-18T00:07:45.741Z,57.26
2018-06-18T00:10:13.839Z,57.44
2018-06-18T00:12:42.542Z,58.15
2018-06-18T00:15:10.594Z,58.21
2018-06-18T00:17:38.694Z,58.40
2018-06-18T00:20:06.867Z,59.38
2018-06-18T00:22:35.039Z,58.62
2018-06-18T00:25:03.483Z,58.75
2018-06-18T00:27:31.576Z,60.07
2018-06-18T00:29:59.705Z,59.97
2018-06-18T00:32:27.782Z,59.82
2018-06-18T00:34:55.898Z,59.64
2018-06-18T00:37:23.977Z,59.97
2018-06-18T00:39:52.238Z,59.44
2018-06-18T00:42:20.312Z,59.64
2018-06-18T00:44:48.354Z,58.93
2018-06-18T00:47:16.533Z,59.65
2018-06-18T00:49:44.637Z,61.28
2018-06-18T00:52:12.816Z,60.21
2018-06-18T00:54:40.877Z,59.83
2018-06-18T00:57:09.029Z,60.59
2018-06-18T00:59:37.086Z,61.22
2018-06-18T01:02:05.193Z,60.95
2018-06-18T01:04:33.260Z,60.94
2018-06-18T01:07:01.386Z,60.03
2018-06-18T01:09:29.562Z,60.20
2018-06-18T01:11:57.785Z,59.71
2018-06-18T01:14:25.854Z,61.63
2018-06-18T01:16:53.993Z,59.94
2018-06-18T01:19:22.047Z,60.46
2018-06-18T01:24:56.231Z,59.63
2018-06-18T01:27:24.474Z,58.31
2018-06-18T01:29:52.542Z,59.83
2018-06-18T01:32:20.612Z,61.04
2018-06-18T01:34:48.924Z,61.01
2018-06-18T01:37:17.011Z,60.03
2018-06-18T01:39:45.135Z,59.68
2018-06-18T01:42:13.315Z,60.95
2018-06-18T01:44:41.427Z,61.97
2018-06-18T01:47:09.690Z,62.22
2018-06-18T01:49:37.862Z,63.19
2018-06-18T01:52:05.986Z,60.82
2018-06-18T01:54:34.055Z,61.50
2018-06-18T01:57:02.145Z,62.75
2018-06-18T01:59:30.347Z,61.77
2018-06-18T02:01:58.406Z,63.76
2018-06-18T02:04:27.410Z,62.84
2018-06-18T02:06:55.502Z,62.88
2018-06-18T02:09:23.623Z,63.29
2018-06-18T02:11:51.718Z,62.61
2018-06-18T02:14:19.804Z,63.36
2018-06-18T02:16:47.910Z,62.41
2018-06-18T02:19:15.998Z,64.72
2018-06-18T02:21:45.182Z,63.27
2018-06-18T02:24:13.230Z,65.23
2018-06-18T02:26:41.327Z,65.53
2018-06-18T02:29:14.826Z,65.09
2018-06-18T02:31:48.416Z,63.15
2018-06-18T02:34:21.788Z,63.54
2018-06-18T02:36:55.221Z,65.81
2018-06-18T02:39:23.394Z,65.55
2018-06-18T02:41:51.466Z,65.07
2018-06-18T02:44:19.625Z,67.59
2018-06-18T02:46:47.749Z,68.24
2018-06-18T02:49:15.815Z,68.49
2018-06-18T02:51:44.044Z,68.19
2018-06-18T02:54:13.116Z,67.87
2018-06-18T02:56:51.094Z,68.08
2018-06-18T02:59:19.475Z,68.35
2018-06-18T03:01:47.640Z,69.28
2018-06-18T03:04:15.897Z,68.66
2018-06-18T03:06:43.947Z,66.34
2018-06-18T03:09:13.182Z,66.94
2018-06-18T03:11:41.306Z,66.46
2018-06-18T03:14:10.343Z,65.77
2018-06-18T03:16:38.426Z,66.28
2018-06-18T03:19:11.867Z,63.90
2018-06-18T03:21:45.497Z,66.08
2018-06-18T03:25:18.355Z,65.34
2018-06-18T03:27:51.719Z,68.21
2018-06-18T03:30:19.803Z,67.72
2018-06-18T03:32:48.851Z,66.24
2018-06-18T03:35:17.075Z,66.13
2018-06-18T03:37:45.126Z,67.24
2018-06-18T03:40:13.237Z,66.50
2018-06-18T03:42:41.908Z,68.25
2018-06-18T03:45:14.652Z,69.12
2018-06-18T03:47:43.206Z,68.13
2018-06-18T03:50:11.416Z,68.90
2018-06-18T03:52:39.449Z,69.32
2018-06-18T03:55:11.525Z,69.55
2018-06-18T03:57:39.680Z,69.44
2018-06-18T04:00:10.160Z,68.66
2018-06-18T04:03:04.261Z,69.58
2018-06-18T04:05:37.988Z,68.77
2018-06-18T04:08:09.587Z,69.18
2018-06-18T04:10:43.430Z,68.60
2018-06-18T04:13:11.608Z,69.39
2018-06-18T04:15:39.734Z,68.29
2018-06-18T04:18:07.890Z,69.09
2018-06-18T04:20:46.753Z,67.72
2018-06-18T04:23:14.868Z,68.85
2018-06-18T04:25:43.550Z,69.08
2018-06-18T04:28:12.003Z,67.87
2018-06-18T04:30:40.435Z,67.39
2018-06-18T04:33:08.952Z,67.43
2018-06-18T04:35:37.100Z,67.04
2018-06-18T04:38:05.214Z,67.98
2018-06-18T04:40:33.382Z,66.73
2018-06-18T04:43:07.063Z,67.17
2018-06-18T04:45:40.622Z,67.57
2018-06-18T04:48:14.094Z,66.49
2018-06-18T04:50:47.584Z,65.52
2018-06-18T04:53:15.715Z,66.49
2018-06-18T04:55:43.831Z,65.73
2018-06-18T04:58:11.996Z,66.12
2018-06-18T05:01:02.911Z,65.03
2018-06-18T05:03:30.972Z,65.58
2018-06-18T05:05:59.290Z,65.51
2018-06-18T05:08:42.318Z,64.99
2018-06-18T05:11:10.419Z,64.19
2018-06-18T05:13:38.538Z,65.23
2018-06-18T05:16:06.711Z,64.82
2018-06-18T05:18:34.924Z,64.25
2018-06-18T05:21:03.199Z,64.06
2018-06-18T05:23:31.278Z,61.76
2018-06-18T05:26:00.709Z,62.89
2018-06-18T05:28:28.932Z,63.08
2018-06-18T05:30:57.624Z,62.70
2018-06-18T05:33:25.785Z,61.20
2018-06-18T05:35:53.850Z,61.99
2018-06-18T05:38:31.939Z,61.60
2018-06-18T05:41:00.438Z,62.39
2018-06-18T05:43:29.017Z,62.83
2018-06-18T05:45:57.062Z,62.61
2018-06-18T05:48:25.198Z,62.65
2018-06-18T05:50:53.295Z,61.85
2018-06-18T05:53:21.452Z,61.07
2018-06-18T05:55:49.642Z,62.51
2018-06-18T05:58:18.072Z,62.76
2018-06-18T06:00:46.251Z,61.64
2018-06-18T06:03:14.358Z,61.18
2018-06-18T06:05:42.646Z,61.40
2018-06-18T06:08:10.958Z,62.30
2018-06-18T06:10:39.287Z,61.82
2018-06-18T06:13:08.512Z,61.85
2018-06-18T06:15:36.590Z,61.29
2018-06-18T06:18:04.911Z,61.67
2018-06-18T06:20:33.490Z,60.54
2018-06-18T06:23:01.597Z,59.82
2018-06-18T06:25:29.844Z,59.63
2018-06-18T06:27:57.931Z,58.32
2018-06-18T06:30:26.119Z,57.43
2018-06-18T06:32:54.252Z,57.78
2018-06-18T06:35:26.550Z,58.24
2018-06-18T06:37:55.615Z,57.89
2018-06-18T06:40:23.986Z,57.33
2018-06-18T06:42:52.167Z,57.22
2018-06-18T06:45:20.787Z,57.89
2018-06-18T06:47:48.934Z,57.66
2018-06-18T06:50:17.398Z,57.78
2018-06-18T06:52:45.508Z,57.58
2018-06-18T06:55:14.266Z,56.97
2018-06-18T06:57:42.326Z,55.97
2018-06-18T07:00:10.406Z,57.03
2018-06-18T07:02:38.629Z,58.34
2018-06-18T07:05:06.699Z,58.97
2018-06-18T07:07:34.904Z,57.07
2018-06-18T07:10:03.222Z,57.55
2018-06-18T07:12:31.834Z,57.42
2018-06-18T07:14:59.902Z,56.52
2018-06-18T07:17:28.558Z,55.65
2018-06-18T07:19:56.654Z,54.88
2018-06-18T07:22:24.863Z,53.86
2018-06-18T07:24:53.010Z,53.49
2018-06-18T07:27:21.078Z,53.92
2018-06-18T07:29:49.147Z,54.54
2018-06-18T07:32:17.249Z,54.19
2018-06-18T07:34:45.363Z,53.56
2018-06-18T07:37:14.267Z,53.83
2018-06-18T07:39:42.357Z,52.64
2018-06-18T07:42:10.454Z,53.89
2018-06-18T07:44:38.546Z,52.03
2018-06-18T07:47:06.775Z,52.02
2018-06-18T07:49:35.054Z,52.37
2018-06-18T07:52:03.167Z,53.17
2018-06-18T07:54:31.242Z,52.18
2018-06-18T07:56:59.525Z,50.95
2018-06-18T07:59:27.650Z,50.41
2018-06-18T08:01:55.702Z,49.55
2018-06-18T08:04:24.286Z,49.87
2018-06-18T08:06:52.536Z,49.24
2018-06-18T08:09:20.640Z,50.47
2018-06-18T08:11:48.734Z,49.54
2018-06-18T08:14:16.822Z,50.60
2018-06-18T08:16:44.882Z,49.02
2018-06-18T08:19:13.110Z,49.19
2018-06-18T08:21:41.168Z,49.75
2018-06-18T08:24:09.304Z,49.12
2018-06-18T08:26:37.423Z,49.33
2018-06-18T08:29:05.519Z,49.85
2018-06-18T08:31:33.636Z,49.47
2018-06-18T08:34:01.821Z,48.87
2018-06-18T08:36:31.573Z,48.23
2018-06-18T08:38:59.695Z,48.15
2018-06-18T08:41:27.871Z,48.09
2018-06-18T08:43:56.115Z,49.07
2018-06-18T08:46:24.218Z,48.95
2018-06-18T08:48:57.691Z,49.03
2018-06-18T08:51:31.126Z,48.61
2018-06-18T08:54:04.685Z,48.29
2018-06-18T08:56:38.079Z,48.30
2018-06-18T08:59:11.596Z,48.50
2018-06-18T09:01:41.874Z,48.66
2018-06-18T09:04:15.234Z,48.78
2018-06-18T09:06:43.526Z,48.54
2018-06-18T09:09:11.614Z,48.21
2018-06-18T09:11:39.710Z,47.99
2018-06-18T09:14:07.830Z,47.69
2018-06-18T09:16:35.991Z,47.39
2018-06-18T09:19:04.111Z,46.86
2018-06-18T09:21:32.420Z,47.64
2018-06-18T09:24:00.606Z,47.11
2018-06-18T09:26:29.450Z,46.32
2018-06-18T09:28:57.578Z,45.64
2018-06-18T09:31:25.891Z,45.63
2018-06-18T09:33:54.045Z,46.27
2018-06-18T09:36:22.114Z,46.01
2018-06-18T09:38:50.222Z,46.25
2018-06-18T09:41:18.299Z,45.54
2018-06-18T09:43:46.410Z,44.19
2018-06-18T09:46:14.944Z,44.19
2018-06-18T09:48:48.480Z,44.69
2018-06-18T09:51:21.906Z,43.96
2018-06-18T09:53:55.334Z,44.03
2018-06-18T09:56:29.428Z,44.24
2018-06-18T09:59:02.906Z,44.12
2018-06-18T10:01:32.510Z,43.99
2018-06-18T10:04:01.427Z,43.39
2018-06-18T10:06:31.014Z,43.90
2018-06-18T10:09:02.042Z,44.04
2018-06-18T10:11:30.260Z,42.81
2018-06-18T10:13:58.462Z,42.51
2018-06-18T10:16:26.692Z,44.39
2018-06-18T10:18:54.771Z,44.30
2018-06-18T10:21:22.848Z,43.51
2018-06-18T10:23:51.187Z,43.95
2018-06-18T10:26:19.379Z,43.84
2018-06-18T10:28:47.471Z,43.79
2018-06-18T10:31:15.534Z,42.46
2018-06-18T10:33:49.079Z,40.80
2018-06-18T10:36:22.592Z,42.38
2018-06-18T10:38:56.102Z,41.49
2018-06-18T10:41:29.849Z,41.53
2018-06-18T10:43:58.255Z,40.87
2018-06-18T10:46:26.441Z,40.56
2018-06-18T10:48:54.622Z,40.22
2018-06-18T10:51:22.667Z,39.86
2018-06-18T10:53:50.855Z,40.02
2018-06-18T10:56:19.002Z,40.85
2018-06-18T10:58:47.459Z,40.67
2018-06-18T11:01:21.499Z,41.04
2018-06-18T11:03:50.733Z,39.84
2018-06-18T11:06:24.046Z,40.70
2018-06-18T11:08:52.186Z,40.59
2018-06-18T11:11:20.318Z,40.50
2018-06-18T11:13:48.606Z,41.04
2018-06-18T11:16:16.811Z,40.91
2018-06-18T11:18:50.782Z,40.81
2018-06-18T11:21:24.147Z,40.38
2018-06-18T11:23:57.689Z,40.73
2018-06-18T11:26:31.243Z,40.75
2018-06-18T11:28:59.275Z,40.86
2018-06-18T11:31:27.521Z,40.58
2018-06-18T11:33:55.621Z,40.11
2018-06-18T11:36:23.688Z,39.41
2018-06-18T11:38:51.916Z,40.90
2018-06-18T11:41:20.055Z,40.30
2018-06-18T11:43:48.262Z,40.94
2018-06-18T11:46:16.357Z,40.40
2018-06-18T11:48:44.440Z,41.43
2018-06-18T11:51:12.599Z,41.76
2018-06-18T11:53:40.741Z,40.41
2018-06-18T11:56:08.845Z,40.65
2018-06-18T11:58:42.294Z,41.50
2018-06-18T12:01:15.810Z,41.36
2018-06-18T12:03:49.396Z,40.81
2018-06-18T12:06:22.864Z,40.94
2018-06-18T12:08:56.215Z,41.65
2018-06-18T12:11:24.307Z,40.40
2018-06-18T12:13:52.462Z,40.27
2018-06-18T12:16:20.651Z,40.86
2018-06-18T12:18:48.730Z,42.05
2018-06-18T12:21:16.812Z,42.14
2018-06-18T12:23:45.753Z,40.65
2018-06-18T12:26:13.890Z,41.43
2018-06-18T12:28:42.148Z,41.17
2018-06-18T12:31:10.258Z,43.16
2018-06-18T12:33:38.587Z,41.78
2018-06-18T12:36:08.189Z,40.87
2018-06-18T12:38:36.277Z,41.49
2018-06-18T12:41:04.545Z,40.99
2018-06-18T12:43:36.042Z,41.48
2018-06-18T12:46:09.559Z,41.63
2018-06-18T12:48:43.107Z,41.10
2018-06-18T12:51:16.511Z,41.76
2018-06-18T12:53:49.947Z,41.59
2018-06-18T12:56:23.427Z,41.46
2018-06-18T12:58:51.539Z,41.77
2018-06-18T13:01:20.889Z,40.83
2018-06-18T13:03:49.302Z,41.74
2018-06-18T13:06:17.508Z,41.64
2018-06-18T13:08:45.943Z,40.81
2018-06-18T13:11:14.118Z,40.02
2018-06-18T13:13:44.836Z,40.21
2018-06-18T13:16:13.023Z,40.80
2018-06-18T13:18:41.153Z,40.67
2018-06-18T13:21:09.279Z,40.69
2018-06-18T13:23:37.359Z,39.78
2018-06-18T13:26:05.479Z,37.88
2018-06-18T13:28:33.640Z,35.19
2018-06-18T13:31:01.707Z,34.75
2018-06-18T13:33:29.866Z,34.67
2018-06-18T13:35:57.949Z,30.98
2018-06-18T13:38:31.368Z,31.32
2018-06-18T13:41:05.110Z,32.50
2018-06-18T13:43:38.529Z,31.43
2018-06-18T13:46:13.375Z,32.32
2018-06-18T13:48:49.111Z,32.94
2018-06-18T13:51:17.272Z,33.62
2018-06-18T13:53:46.523Z,33.92
2018-06-18T13:56:14.920Z,31.76
2018-06-18T13:58:43.048Z,33.32
2018-06-18T14:01:12.185Z,35.78
2018-06-18T14:03:40.303Z,35.56
2018-06-18T14:06:08.455Z,35.46
2018-06-18T14:08:36.562Z,36.75
2018-06-18T14:11:04.763Z,37.60
2018-06-18T14:13:33.212Z,37.30
2018-06-18T14:16:02.622Z,38.19
2018-06-18T14:18:30.890Z,37.28
2018-06-18T14:20:59.120Z,39.01
2018-06-18T14:23:27.199Z,38.54
2018-06-18T14:25:55.438Z,38.93
2018-06-18T14:28:23.568Z,38.65
2018-06-18T14:30:57.255Z,37.61
2018-06-18T14:33:30.786Z,37.38
2018-06-18T14:36:04.150Z,38.09
2018-06-18T14:38:38.621Z,37.98
2018-06-18T14:41:07.215Z,38.06
2018-06-18T14:43:35.493Z,37.22
2018-06-18T14:46:03.742Z,36.80
2018-06-18T14:48:32.016Z,34.54
2018-06-18T14:51:00.117Z,34.84
2018-06-18T14:53:28.248Z,34.35
2018-06-18T14:56:01.805Z,36.93
2018-06-18T14:58:29.900Z,37.78
2018-06-18T15:00:58.015Z,38.47
2018-06-18T15:03:26.103Z,38.63
2018-06-18T15:05:54.249Z,40.04
2018-06-18T15:08:22.354Z,39.53
2018-06-18T15:10:53.275Z,40.53
2018-06-18T15:13:21.433Z,40.14
2018-06-18T15:15:55.048Z,40.83
2018-06-18T15:18:23.119Z,39.84
2018-06-18T15:20:52.903Z,41.70
2018-06-18T15:23:21.001Z,40.88
2018-06-18T15:25:50.666Z,39.71
2018-06-18T15:28:18.792Z,40.88
2018-06-18T15:30:48.239Z,40.58
2018-06-18T15:33:17.413Z,40.71
2018-06-18T15:35:45.523Z,41.27
2018-06-18T15:38:13.727Z,40.51
2018-06-18T15:40:42.341Z,40.67
2018-06-18T15:43:10.442Z,40.02
2018-06-18T15:45:38.746Z,40.47
2018-06-18T15:48:06.881Z,40.58
2018-06-18T15:50:34.958Z,41.17
2018-06-18T15:53:03.167Z,41.23
2018-06-18T15:55:31.340Z,40.88
2018-06-18T15:57:59.487Z,41.28
2018-06-18T16:00:27.641Z,41.72
2018-06-18T16:02:55.769Z,42.37
2018-06-18T16:05:23.903Z,40.76
2018-06-18T16:07:52.173Z,41.42
2018-06-18T16:10:20.414Z,41.54
2018-06-18T16:12:48.662Z,40.91
2018-06-18T16:15:16.961Z,42.84
2018-06-18T16:17:45.101Z,42.09
2018-06-18T16:20:13.329Z,43.09
2018-06-18T16:22:41.553Z,43.11
2018-06-18T16:25:09.624Z,42.49
2018-06-18T16:27:37.881Z,43.29
2018-06-18T16:30:06.060Z,43.52
2018-06-18T16:32:34.334Z,44.03
2018-06-18T16:35:02.518Z,44.50
2018-06-18T16:37:30.643Z,44.18
2018-06-18T16:39:59.061Z,43.81
2018-06-18T16:42:27.282Z,44.17
2018-06-18T16:44:55.402Z,44.59
2018-06-18T16:47:23.588Z,44.97
2018-06-18T16:49:51.715Z,43.90
2018-06-18T16:52:19.816Z,44.37
2018-06-18T16:54:48.063Z,44.49
2018-06-18T17:05:51.106Z,45.17
2018-06-18T17:08:19.206Z,45.96
2018-06-18T17:10:47.324Z,45.29
2018-06-18T17:13:15.398Z,45.59
2018-06-18T17:15:43.659Z,46.00
2018-06-18T17:18:11.704Z,46.03
2018-06-18T17:20:39.827Z,45.88
2018-06-18T17:23:08.043Z,46.33
2018-06-18T17:25:36.150Z,47.17
2018-06-18T17:28:04.256Z,47.22
2018-06-18T17:30:32.354Z,46.69
2018-06-18T17:33:00.419Z,47.02
2018-06-18T17:35:28.511Z,46.96
2018-06-18T17:37:56.915Z,46.30
2018-06-18T17:40:24.992Z,46.83
2018-06-18T17:42:53.378Z,46.29
2018-06-18T17:45:21.538Z,46.27
2018-06-18T17:47:49.624Z,47.27
2018-06-18T17:50:17.703Z,47.15
2018-06-18T17:52:45.802Z,48.91
2018-06-18T17:55:14.158Z,48.69
2018-06-18T17:57:42.242Z,48.48
2018-06-18T18:00:10.368Z,49.08
2018-06-18T18:02:38.577Z,49.35
2018-06-18T18:05:06.679Z,48.84
2018-06-18T18:07:34.787Z,48.37
2018-06-18T18:10:03.155Z,48.07
2018-06-18T18:12:31.333Z,49.02
2018-06-18T18:14:59.546Z,48.86
2018-06-18T18:17:27.720Z,48.94
2018-06-18T18:19:55.862Z,49.50
2018-06-18T18:22:27.660Z,49.07
2018-06-18T18:24:56.969Z,50.05
2018-06-18T18:27:26.737Z,50.38
2018-06-18T18:29:54.967Z,49.71
2018-06-18T18:32:23.075Z,50.26
2018-06-18T18:34:51.264Z,50.50
2018-06-18T18:37:19.361Z,50.75
2018-06-18T18:39:47.619Z,51.26
2018-06-18T18:42:15.782Z,51.08
2018-06-18T18:44:44.158Z,51.64
2018-06-18T18:47:12.375Z,51.48
2018-06-18T18:49:41.742Z,51.81
2018-06-18T18:52:09.997Z,51.35
2018-06-18T18:55:53.383Z,51.63
2018-06-18T18:58:48.944Z,51.69
2018-06-18T19:01:17.733Z,52.55
2018-06-18T19:03:48.061Z,51.28
2018-06-18T19:06:16.238Z,51.53
2018-06-18T19:08:44.612Z,52.40
2018-06-18T19:11:12.863Z,51.78
2018-06-18T19:13:41.144Z,50.58
2018-06-18T19:16:09.814Z,51.87
2018-06-18T19:18:39.355Z,52.78
2018-06-18T19:21:09.038Z,52.55
2018-06-18T19:23:37.625Z,52.29
2018-06-18T19:26:05.887Z,51.86
2018-06-18T19:28:36.098Z,52.00
2018-06-18T19:31:15.401Z,52.69
2018-06-18T19:33:50.076Z,52.70
2018-06-18T19:36:18.383Z,52.39
2018-06-18T19:38:46.510Z,52.73
2018-06-18T19:41:14.630Z,54.58
2018-06-18T19:43:43.039Z,52.59
2018-06-18T19:46:11.159Z,54.30
2018-06-18T19:48:46.596Z,53.87
2018-06-18T19:51:14.727Z,54.31
2018-06-18T19:53:42.850Z,54.21
2018-06-18T19:56:11.034Z,54.27
2018-06-18T19:58:39.222Z,55.38
2018-06-18T20:01:08.826Z,54.30
2018-06-18T20:03:36.931Z,54.19
2018-06-18T20:06:05.110Z,54.09
2018-06-18T20:08:33.430Z,54.25
2018-06-18T20:11:01.594Z,54.07
2018-06-18T20:13:29.684Z,54.60
2018-06-18T20:15:57.754Z,54.34
2018-06-18T20:18:25.885Z,54.62
2018-06-18T20:20:54.195Z,54.83
2018-06-18T20:23:24.236Z,55.38
2018-06-18T20:26:10.553Z,55.19
2018-06-18T20:28:38.885Z,56.44
2018-06-18T20:31:07.171Z,56.13
2018-06-18T20:33:38.019Z,54.56
2018-06-18T20:36:10.751Z,56.51
2018-06-18T20:38:38.879Z,56.54
2018-06-18T20:41:07.766Z,56.25
2018-06-18T20:43:49.876Z,57.49
2018-06-18T20:46:18.290Z,56.85
2018-06-18T20:48:46.516Z,57.73
2018-06-18T20:51:14.697Z,57.98
2018-06-18T20:53:42.811Z,57.69
2018-06-18T20:56:11.135Z,57.41
2018-06-18T20:58:39.223Z,57.75
2018-06-18T21:01:07.600Z,58.15
2018-06-18T21:03:35.685Z,57.91
2018-06-18T21:06:03.922Z,57.55
2018-06-18T21:08:32.036Z,57.99
2018-06-18T21:11:00.243Z,59.23
2018-06-18T21:13:28.502Z,58.60
2018-06-18T21:15:56.901Z,58.93
2018-06-18T21:18:25.006Z,59.33
2018-06-18T21:20:53.301Z,58.18
2018-06-18T21:23:21.399Z,58.40
2018-06-18T21:25:49.697Z,58.89
2018-06-18T21:28:18.427Z,59.33
2018-06-18T21:30:46.813Z,58.69
2018-06-18T21:33:15.449Z,58.10
2018-06-18T21:35:43.638Z,59.30
2018-06-18T21:38:11.723Z,59.20
2018-06-18T21:40:39.970Z,58.75
2018-06-18T21:43:08.139Z,59.08
2018-06-18T21:45:36.285Z,59.93
2018-06-18T21:48:04.839Z,59.31
2018-06-18T21:50:33.026Z,59.49
2018-06-18T21:53:01.182Z,59.91
2018-06-18T21:55:29.253Z,59.31
2018-06-18T21:57:58.578Z,59.43
2018-06-18T22:00:35.542Z,60.14
2018-06-18T22:03:03.626Z,60.69
2018-06-18T22:05:31.882Z,60.59
2018-06-18T22:08:00.382Z,60.79
2018-06-18T22:10:28.486Z,60.37
2018-06-18T22:12:56.806Z,60.97
2018-06-18T22:15:25.228Z,60.20
2018-06-18T22:17:53.587Z,61.13
2018-06-18T22:20:21.789Z,61.61
2018-06-18T22:22:50.197Z,60.79
2018-06-18T22:25:19.272Z,62.04
2018-06-18T22:27:47.747Z,60.68
2018-06-18T22:30:15.980Z,61.83
2018-06-18T22:32:44.144Z,61.30
2018-06-18T22:35:12.309Z,61.44
2018-06-18T22:37:40.489Z,61.43
2018-06-18T22:40:08.723Z,61.37
2018-06-18T22:42:37.278Z,61.74
2018-06-18T22:45:07.354Z,61.90
2018-06-18T22:47:35.591Z,62.00
2018-06-18T22:50:03.739Z,61.89
2018-06-18T22:52:31.923Z,62.50
2018-06-18T22:55:00.100Z,62.92
2018-06-18T22:57:28.234Z,63.85
2018-06-18T22:59:56.422Z,63.48
2018-06-18T23:02:28.226Z,63.95
2018-06-18T23:04:56.643Z,63.55
2018-06-18T23:07:24.861Z,63.27
2018-06-18T23:09:53.077Z,64.68
2018-06-18T23:12:23.220Z,64.07
2018-06-18T23:14:51.498Z,64.16
2018-06-18T23:17:19.727Z,64.29
2018-06-18T23:19:48.853Z,64.77
2018-06-18T23:22:17.105Z,64.27
2018-06-18T23:24:46.271Z,64.33
2018-06-18T23:27:14.379Z,64.17
2018-06-18T23:29:42.549Z,64.93
2018-06-18T23:32:11.445Z,64.79
2018-06-18T23:34:39.856Z,64.68
2018-06-18T23:37:08.226Z,64.96
2018-06-18T23:39:36.436Z,64.13
2018-06-18T23:42:04.771Z,65.52
2018-06-18T23:44:32.935Z,65.09
2018-06-18T23:47:01.094Z,64.82
2018-06-18T23:49:29.405Z,65.20
2018-06-18T23:51:57.885Z,66.09
2018-06-18T23:54:26.009Z,65.81
2018-06-18T23:56:54.201Z,65.88
2018-06-18T23:59:22.520Z,66.11
